Time;durP1;ratioP1;P1;durP2;ratioP2;P2;SDS_P1;SDS_P2;PMS_P1;PMS_P2;Temp;Humidity;BMP_temperature;BMP_pressure;BME280_temperature;BME280_humidity;BME280_pressure;Samples;Min_cycle;Max_cycle;Signal;HPM_P1;HPM_P2
2024/01/25 00:02:25;;;;;;;0.65;0.63;;;7.20;99.90;;;;;;4993992;28;20041;-78
2024/01/25 00:04:50;;;;;;;0.50;0.50;;;7.10;99.90;;;;;;5010606;28;20462;-78
2024/01/25 00:07:16;;;;;;;0.50;0.50;;;7.10;99.90;;;;;;5011667;28;20034;-79
2024/01/25 00:09:42;;;;;;;0.98;0.98;;;7.10;99.90;;;;;;4991933;28;20269;-79
2024/01/25 00:12:14;;;;;;;4.13;3.70;;;7.10;99.90;;;;;;4998652;28;20450;-79
2024/01/25 00:14:40;;;;;;;0.50;0.50;;;7.00;99.90;;;;;;4996505;28;20056;-79
2024/01/25 00:17:07;;;;;;;;;;;7.10;99.90;;;;;;5010200;28;20129;-78
2024/01/25 00:19:35;;;;;;;0.55;0.55;;;7.00;99.90;;;;;;4994502;28;19917;-79
2024/01/25 00:22:00;;;;;;;0.40;0.40;;;7.00;99.90;;;;;;4994212;28;20080;-79
2024/01/25 00:24:26;;;;;;;0.98;0.98;;;6.90;99.90;;;;;;5008556;28;20465;-78
2024/01/25 00:26:55;;;;;;;0.50;0.50;;;7.20;99.90;;;;;;5029733;28;20079;-78
2024/01/25 00:29:21;;;;;;;0.70;0.70;;;6.80;99.90;;;;;;4952519;28;20058;-79
2024/01/25 00:31:46;;;;;;;0.60;0.60;;;7.50;99.90;;;;;;4975296;28;20116;-79
2024/01/25 00:34:12;;;;;;;0.50;0.50;;;6.90;99.90;;;;;;4994998;28;20048;-79
2024/01/25 00:36:39;;;;;;;0.55;0.55;;;6.80;99.90;;;;;;4990877;28;20104;-79
2024/01/25 00:39:05;;;;;;;0.50;0.50;;;6.70;99.90;;;;;;5001493;28;20038;-79
2024/01/25 00:41:32;;;;;;;;;;;6.70;99.90;;;;;;5006136;28;20125;-79
2024/01/25 00:43:58;;;;;;;0.60;0.60;;;6.70;99.90;;;;;;4974475;28;19984;-79
2024/01/25 00:46:31;;;;;;;0.68;0.68;;;6.70;99.90;;;;;;4993351;28;20099;-79
2024/01/25 00:48:57;;;;;;;0.50;0.50;;;6.60;99.90;;;;;;5006192;28;20046;-79
2024/01/25 00:51:23;;;;;;;3.72;1.63;;;6.50;99.90;;;;;;4992880;28;20092;-78
2024/01/25 00:53:48;;;;;;;;;;;6.40;99.90;;;;;;5007652;28;20034;-79
2024/01/25 00:56:14;;;;;;;1.05;0.95;;;6.30;99.90;;;;;;5009681;28;20330;-79
2024/01/25 00:58:40;;;;;;;9.85;2.08;;;6.40;99.90;;;;;;4988822;28;20434;-79
2024/01/25 01:01:07;;;;;;;0.63;0.63;;;6.40;99.90;;;;;;5006895;28;20415;-80
2024/01/25 01:03:33;;;;;;;0.68;0.68;;;6.40;99.90;;;;;;4996416;28;20038;-78
2024/01/25 01:05:59;;;;;;;0.70;0.70;;;6.40;99.90;;;;;;5007067;28;20840;-79
2024/01/25 01:08:26;;;;;;;0.90;0.90;;;6.40;99.90;;;;;;5004777;28;20069;-79
2024/01/25 01:10:51;;;;;;;0.68;0.68;;;6.40;99.90;;;;;;5007246;28;20061;-79
2024/01/25 01:13:19;;;;;;;1.55;1.55;;;6.40;99.90;;;;;;4975207;28;20703;-79
2024/01/25 01:15:44;;;;;;;0.88;0.88;;;6.40;99.90;;;;;;4991313;28;20050;-79
2024/01/25 01:18:10;;;;;;;2.55;1.30;;;6.40;99.90;;;;;;5009696;28;20060;-79
2024/01/25 01:20:36;;;;;;;0.40;0.40;;;6.40;99.90;;;;;;4990478;28;20508;-80
2024/01/25 01:23:01;;;;;;;0.50;0.50;;;6.30;99.90;;;;;;4990668;28;20034;-79
2024/01/25 01:25:27;;;;;;;0.68;0.68;;;6.30;99.90;;;;;;4974408;28;20038;-78
2024/01/25 01:27:53;;;;;;;0.60;0.60;;;6.40;99.90;;;;;;4989079;28;20037;-79
2024/01/25 01:30:22;;;;;;;0.60;0.60;;;6.30;99.90;;;;;;4990572;28;20065;-79
2024/01/25 01:32:49;;;;;;;;;;;6.30;99.90;;;;;;5009494;28;20038;-79
2024/01/25 01:35:14;;;;;;;0.60;0.60;;;6.70;99.90;;;;;;4991455;28;20393;-79
2024/01/25 01:37:40;;;;;;;1.58;1.50;;;6.30;99.90;;;;;;4989081;28;20041;-78
2024/01/25 01:40:06;;;;;;;3.20;2.95;;;6.30;99.90;;;;;;5006194;28;20044;-80
2024/01/25 01:42:34;;;;;;;0.50;0.50;;;6.30;99.90;;;;;;5006862;28;20041;-80
2024/01/25 01:45:00;;;;;;;5.65;1.50;;;6.30;99.90;;;;;;4959278;28;20045;-79
2024/01/25 01:47:25;;;;;;;0.60;0.60;;;6.30;99.90;;;;;;5005553;28;20054;-78
2024/01/25 01:49:51;;;;;;;1.15;1.15;;;6.30;99.90;;;;;;4990746;28;20495;-79
2024/01/25 01:52:18;;;;;;;0.65;0.65;;;6.30;99.90;;;;;;5003435;28;20073;-83
2024/01/25 01:54:46;;;;;;;0.63;0.63;;;6.10;99.90;;;;;;4988283;28;20076;-85
2024/01/25 01:57:13;;;;;;;0.77;0.77;;;6.30;99.90;;;;;;5006198;28;20423;-84
2024/01/25 01:59:39;;;;;;;0.50;0.50;;;6.20;99.90;;;;;;4986852;28;20049;-86
2024/01/25 02:02:05;;;;;;;0.68;0.68;;;6.20;99.90;;;;;;4993119;28;20046;-83
2024/01/25 02:04:31;;;;;;;0.50;0.50;;;6.20;99.90;;;;;;4993561;28;20639;-82
2024/01/25 02:06:57;;;;;;;0.60;0.60;;;6.30;99.90;;;;;;4986027;28;20040;-84
2024/01/25 02:09:23;;;;;;;0.90;0.90;;;6.30;99.90;;;;;;5009727;28;20048;-85
2024/01/25 02:11:59;;;;;;;0.60;0.60;;;6.30;99.90;;;;;;4996490;28;20038;-83
2024/01/25 02:14:31;;;;;;;1.15;1.15;;;6.20;99.90;;;;;;4993391;28;20414;-84
2024/01/25 02:16:57;;;;;;;0.60;0.60;;;6.20;99.90;;;;;;4993176;28;20117;-85
2024/01/25 02:19:22;;;;;;;0.73;0.73;;;6.10;99.90;;;;;;4992846;28;20045;-85
2024/01/25 02:21:51;;;;;;;0.60;0.60;;;6.10;99.90;;;;;;4977175;28;20676;-85
2024/01/25 02:24:16;;;;;;;2.47;1.10;;;6.10;99.90;;;;;;5005988;28;20088;-84
2024/01/25 02:26:42;;;;;;;0.60;0.60;;;6.30;99.90;;;;;;4987815;28;20050;-84
2024/01/25 02:29:09;;;;;;;0.52;0.52;;;6.00;99.90;;;;;;4988629;28;20066;-83
2024/01/25 02:31:35;;;;;;;0.80;0.80;;;6.00;99.90;;;;;;4991495;28;20038;-82
2024/01/25 02:34:06;;;;;;;0.60;0.60;;;6.00;99.90;;;;;;5006453;28;20131;-85
2024/01/25 02:36:32;;;;;;;0.50;0.50;;;6.00;99.90;;;;;;4990104;28;20073;-83
2024/01/25 02:38:59;;;;;;;0.35;0.35;;;7.00;99.90;;;;;;4974527;28;20074;-83
2024/01/25 02:41:25;;;;;;;0.60;0.60;;;6.00;99.90;;;;;;5008163;28;20088;-83
2024/01/25 02:43:51;;;;;;;0.45;0.45;;;5.80;99.90;;;;;;5008221;28;20045;-83
2024/01/25 02:46:16;;;;;;;1.92;1.83;;;6.00;99.90;;;;;;4989620;28;20094;-83
2024/01/25 02:48:42;;;;;;;0.43;0.43;;;5.90;99.90;;;;;;5005877;28;20484;-81
2024/01/25 02:51:08;;;;;;;4.82;2.00;;;5.90;99.90;;;;;;4991156;28;20061;-82
2024/01/25 02:53:33;;;;;;;0.40;0.40;;;5.90;99.90;;;;;;4990079;28;20050;-83
2024/01/25 02:55:59;;;;;;;1.15;1.15;;;7.10;99.90;;;;;;5002191;28;20084;-83
2024/01/25 02:58:25;;;;;;;2.55;1.15;;;5.80;99.90;;;;;;5008156;28;20041;-84
2024/01/25 03:00:57;;;;;;;0.50;0.50;;;5.80;99.90;;;;;;5006001;28;20045;-83
2024/01/25 03:03:26;;;;;;;2.05;1.85;;;5.70;99.90;;;;;;4971597;28;20034;-78
2024/01/25 03:05:52;;;;;;;0.50;0.50;;;5.80;99.90;;;;;;4985959;28;20530;-78
2024/01/25 03:08:21;;;;;;;0.68;0.68;;;5.80;99.90;;;;;;4996321;28;20041;-77
2024/01/25 03:10:50;;;;;;;0.73;0.65;;;5.80;99.90;;;;;;4989048;28;20037;-81
2024/01/25 03:13:19;;;;;;;0.43;0.43;;;5.70;99.90;;;;;;5003428;28;20037;-78
2024/01/25 03:15:44;;;;;;;2.67;2.58;;;5.70;99.90;;;;;;4989492;28;20042;-78
2024/01/25 03:18:10;;;;;;;0.57;0.57;;;5.70;99.90;;;;;;4989437;28;20054;-78
2024/01/25 03:20:36;;;;;;;0.60;0.60;;;5.60;99.90;;;;;;4988542;28;20510;-77
2024/01/25 03:23:06;;;;;;;0.57;0.57;;;5.60;99.90;;;;;;5004704;28;20049;-78
2024/01/25 03:25:32;;;;;;;0.50;0.50;;;5.60;99.90;;;;;;4988837;28;20553;-77
2024/01/25 03:27:57;;;;;;;2.35;0.98;;;6.00;99.90;;;;;;4974564;28;20037;-78
2024/01/25 03:30:23;;;;;;;2.60;2.50;;;5.60;99.90;;;;;;5005872;28;20062;-78
2024/01/25 03:32:49;;;;;;;12.35;1.27;;;5.50;99.90;;;;;;4976566;28;20069;-78
2024/01/25 03:35:16;;;;;;;0.57;0.57;;;5.40;99.90;;;;;;4993520;28;20038;-78
2024/01/25 03:37:41;;;;;;;1.25;1.15;;;5.40;99.90;;;;;;4989150;28;20045;-78
2024/01/25 03:40:08;;;;;;;2.25;2.15;;;5.40;99.90;;;;;;4994548;28;20096;-77
2024/01/25 03:42:37;;;;;;;0.90;0.90;;;5.40;99.90;;;;;;5008643;28;20152;-78
2024/01/25 03:45:03;;;;;;;0.50;0.50;;;5.40;99.90;;;;;;4994710;28;20046;-79
2024/01/25 03:47:28;;;;;;;0.50;0.50;;;5.40;99.90;;;;;;4976485;28;20073;-78
2024/01/25 03:49:54;;;;;;;0.57;0.57;;;5.30;99.90;;;;;;5024594;28;20509;-78
2024/01/25 03:52:20;;;;;;;0.52;0.52;;;5.30;99.90;;;;;;5008506;28;20034;-79
2024/01/25 03:54:46;;;;;;;0.52;0.52;;;5.60;99.90;;;;;;4991991;28;20042;-79
2024/01/25 03:57:11;;;;;;;0.88;0.88;;;5.30;99.90;;;;;;5006566;28;20042;-78
2024/01/25 03:59:39;;;;;;;0.57;0.57;;;5.90;99.90;;;;;;5002772;28;20906;-79
2024/01/25 04:02:04;;;;;;;1.02;1.02;;;5.20;99.90;;;;;;5006030;28;20041;-79
2024/01/25 04:04:30;;;;;;;0.45;0.45;;;5.20;99.90;;;;;;5005831;28;20042;-78
2024/01/25 04:06:59;;;;;;;0.95;0.95;;;5.20;99.90;;;;;;5005399;28;20114;-78
2024/01/25 04:09:25;;;;;;;0.65;0.65;;;5.20;99.90;;;;;;4983733;28;20038;-78
2024/01/25 04:11:50;;;;;;;0.50;0.50;;;5.10;99.90;;;;;;4976282;28;20040;-79
2024/01/25 04:14:16;;;;;;;3.28;3.08;;;5.10;99.90;;;;;;5004325;28;20741;-79
2024/01/25 04:16:42;;;;;;;0.50;0.50;;;5.10;99.90;;;;;;5007346;28;20049;-79
2024/01/25 04:19:07;;;;;;;0.75;0.75;;;5.20;99.90;;;;;;4989665;28;20107;-78
2024/01/25 04:21:33;;;;;;;4.32;1.13;;;5.00;99.90;;;;;;4991075;28;20096;-78
2024/01/25 04:24:00;;;;;;;0.70;0.70;;;6.00;99.90;;;;;;4991870;28;20038;-78
2024/01/25 04:26:26;;;;;;;0.70;0.70;;;5.20;99.90;;;;;;4993143;28;20045;-78
2024/01/25 04:28:51;;;;;;;0.60;0.60;;;4.90;99.90;;;;;;5005692;28;20050;-78
2024/01/25 04:31:17;;;;;;;0.60;0.60;;;4.90;99.90;;;;;;5008039;28;20064;-78
2024/01/25 04:33:43;;;;;;;3.97;3.67;;;4.90;99.90;;;;;;4990829;28;20574;-78
2024/01/25 04:36:08;;;;;;;0.68;0.68;;;5.00;99.90;;;;;;4987543;28;20046;-78
2024/01/25 04:38:35;;;;;;;0.80;0.80;;;4.90;99.90;;;;;;4987340;28;20046;-78
2024/01/25 04:41:01;;;;;;;0.60;0.60;;;5.00;99.90;;;;;;4970920;28;20515;-78
2024/01/25 04:43:27;;;;;;;2.35;1.50;;;5.10;99.90;;;;;;5011941;28;20073;-77
2024/01/25 04:45:53;;;;;;;1.52;1.52;;;5.00;99.90;;;;;;4990199;28;20034;-77
2024/01/25 04:48:18;;;;;;;1.00;1.00;;;5.00;99.90;;;;;;4989475;28;20128;-77
2024/01/25 04:50:46;;;;;;;0.70;0.70;;;4.90;99.90;;;;;;5007204;28;20061;-78
2024/01/25 04:53:11;;;;;;;0.40;0.40;;;4.80;99.90;;;;;;5006813;28;20107;-78
2024/01/25 04:55:37;;;;;;;0.60;0.60;;;4.80;99.90;;;;;;4991259;28;20038;-78
2024/01/25 04:58:03;;;;;;;0.65;0.65;;;4.70;99.90;;;;;;5012158;28;20073;-78
2024/01/25 05:00:30;;;;;;;1.40;1.15;;;4.80;99.90;;;;;;5001759;28;20038;-78
2024/01/25 05:02:57;;;;;;;0.60;0.60;;;4.80;99.90;;;;;;4989745;28;20050;-78
2024/01/25 05:05:23;;;;;;;0.60;0.60;;;4.70;99.90;;;;;;5007326;28;20050;-78
2024/01/25 05:07:48;;;;;;;0.43;0.43;;;4.70;99.90;;;;;;4976352;28;20081;-78
2024/01/25 05:10:14;;;;;;;6.93;2.13;;;4.70;99.90;;;;;;5004131;28;20109;-79
2024/01/25 05:12:40;;;;;;;0.50;0.50;;;4.60;99.90;;;;;;4992096;28;20365;-79
2024/01/25 05:15:06;;;;;;;0.70;0.70;;;4.60;99.90;;;;;;4989165;28;20127;-78
2024/01/25 05:17:33;;;;;;;;;;;4.60;99.90;;;;;;5006119;28;20037;-78
2024/01/25 05:19:59;;;;;;;12.45;2.67;;;4.70;99.90;;;;;;4990109;28;20041;-79
2024/01/25 05:22:25;;;;;;;0.63;0.63;;;4.50;99.90;;;;;;4971343;28;20046;-79
2024/01/25 05:24:50;;;;;;;0.75;0.75;;;4.50;99.90;;;;;;5007051;28;20578;-79
2024/01/25 05:27:16;;;;;;;0.60;0.60;;;4.50;99.90;;;;;;4989772;28;20115;-79
2024/01/25 05:29:42;;;;;;;0.95;0.95;;;5.20;99.90;;;;;;4988615;28;20061;-79
2024/01/25 05:32:07;;;;;;;0.60;0.60;;;4.50;99.90;;;;;;4973246;28;20041;-78
2024/01/25 05:34:34;;;;;;;0.60;0.60;;;4.50;99.90;;;;;;4972103;28;20392;-79
2024/01/25 05:37:00;;;;;;;0.80;0.80;;;4.50;99.90;;;;;;5002652;28;20066;-78
2024/01/25 05:39:27;;;;;;;0.63;0.63;;;4.50;99.90;;;;;;4988165;28;20389;-78
2024/01/25 05:41:52;;;;;;;0.73;0.70;;;4.50;99.90;;;;;;5006899;28;20044;-78
2024/01/25 05:44:18;;;;;;;0.60;0.60;;;5.10;99.90;;;;;;5008441;28;20038;-77
2024/01/25 05:46:44;;;;;;;0.50;0.50;;;4.50;99.90;;;;;;4990284;28;20411;-78
2024/01/25 05:49:10;;;;;;;0.63;0.63;;;5.20;99.90;;;;;;5011100;28;20057;-76
2024/01/25 05:51:36;;;;;;;1.67;1.08;;;4.50;99.90;;;;;;4988082;28;20476;-78
2024/01/25 05:54:07;;;;;;;0.70;0.70;;;4.50;99.90;;;;;;4993456;28;20132;-78
2024/01/25 05:56:33;;;;;;;1.38;1.33;;;4.40;99.90;;;;;;4988584;28;20156;-77
2024/01/25 05:58:58;;;;;;;0.70;0.70;;;4.00;99.90;;;;;;5003458;28;20042;-78
2024/01/25 06:01:24;;;;;;;0.70;0.70;;;4.50;99.90;;;;;;4988614;28;20046;-79
2024/01/25 06:03:57;;;;;;;1.02;1.02;;;4.50;99.90;;;;;;4972406;28;20046;-78
2024/01/25 06:06:24;;;;;;;1.60;1.52;;;4.50;99.90;;;;;;4991358;28;20514;-78
2024/01/25 06:08:50;;;;;;;2.67;2.47;;;4.40;99.90;;;;;;5006792;28;20041;-78
2024/01/25 06:11:16;;;;;;;0.70;0.70;;;4.50;99.90;;;;;;5003964;28;20498;-78
2024/01/25 06:13:42;;;;;;;0.75;0.75;;;4.90;99.90;;;;;;4988532;28;20050;-78
2024/01/25 06:16:08;;;;;;;2.67;1.55;;;4.50;99.90;;;;;;4974050;28;20056;-79
2024/01/25 06:18:33;;;;;;;0.90;0.90;;;4.40;99.90;;;;;;4990202;28;20050;-79
2024/01/25 06:20:59;;;;;;;0.60;0.60;;;4.60;99.90;;;;;;4988765;28;20063;-78
2024/01/25 06:23:25;;;;;;;0.70;0.70;;;4.80;99.90;;;;;;4992224;28;20124;-78
2024/01/25 06:25:54;;;;;;;2.63;1.65;;;4.50;99.90;;;;;;5005143;28;20093;-77
2024/01/25 06:28:20;;;;;;;0.60;0.60;;;4.40;99.90;;;;;;4989820;28;20050;-78
2024/01/25 06:30:45;;;;;;;0.60;0.60;;;4.30;99.90;;;;;;4992042;28;20038;-78
2024/01/25 06:33:11;;;;;;;0.60;0.60;;;4.60;99.90;;;;;;4995329;28;20041;-78
2024/01/25 06:35:38;;;;;;;0.60;0.60;;;4.10;99.90;;;;;;5008040;28;20042;-78
2024/01/25 06:38:05;;;;;;;0.70;0.70;;;4.40;99.90;;;;;;5003599;28;20119;-78
2024/01/25 06:40:31;;;;;;;0.60;0.60;;;4.90;99.90;;;;;;5016153;28;20884;-77
2024/01/25 06:42:57;;;;;;;1.20;1.20;;;4.30;99.90;;;;;;5005903;28;20037;-77
2024/01/25 06:45:22;;;;;;;1.02;1.02;;;5.00;99.90;;;;;;5008446;28;20414;-77
2024/01/25 06:47:48;;;;;;;0.43;0.43;;;4.30;99.90;;;;;;5008253;28;20411;-77
2024/01/25 06:50:14;;;;;;;0.60;0.60;;;4.30;99.90;;;;;;5015436;28;20037;-76
2024/01/25 06:52:41;;;;;;;0.65;0.65;;;4.30;99.90;;;;;;4982318;28;20046;-77
2024/01/25 06:55:07;;;;;;;0.73;0.73;;;4.30;99.90;;;;;;4988414;28;20043;-77
2024/01/25 06:57:32;;;;;;;0.68;0.68;;;4.30;99.90;;;;;;5005428;28;20041;-77
2024/01/25 06:59:58;;;;;;;0.68;0.68;;;4.30;99.90;;;;;;5012183;28;20048;-78
2024/01/25 07:02:25;;;;;;;0.50;0.50;;;4.40;99.90;;;;;;4991033;28;20037;-78
2024/01/25 07:04:52;;;;;;;0.90;0.90;;;5.40;99.90;;;;;;4992867;28;20430;-79
2024/01/25 07:07:18;;;;;;;1.10;1.10;;;4.30;99.90;;;;;;5030170;28;20444;-78
2024/01/25 07:09:44;;;;;;;0.65;0.65;;;4.30;99.90;;;;;;5013554;28;20187;-79
2024/01/25 07:12:09;;;;;;;1.50;1.40;;;4.30;99.90;;;;;;5013472;28;20045;-77
2024/01/25 07:14:35;;;;;;;0.60;0.60;;;5.30;99.90;;;;;;4996147;28;20056;-78
2024/01/25 07:17:01;;;;;;;10.48;0.95;;;4.20;99.90;;;;;;4994427;28;20117;-78
2024/01/25 07:19:26;;;;;;;0.60;0.60;;;5.00;99.90;;;;;;4995269;28;20451;-78
2024/01/25 07:21:55;;;;;;;0.82;0.82;;;4.20;99.90;;;;;;5030753;28;20064;-78
2024/01/25 07:24:21;;;;;;;0.60;0.60;;;4.20;99.90;;;;;;4994955;28;20515;-78
2024/01/25 07:26:50;;;;;;;0.70;0.70;;;4.20;99.90;;;;;;5030610;28;20137;-78
2024/01/25 07:29:15;;;;;;;0.52;0.52;;;4.20;99.90;;;;;;4980887;28;20492;-78
2024/01/25 07:31:41;;;;;;;1.42;1.42;;;4.20;99.90;;;;;;4994121;28;20049;-78
2024/01/25 07:34:08;;;;;;;0.50;0.50;;;4.20;99.90;;;;;;5011484;28;20370;-79
2024/01/25 07:36:34;;;;;;;1.60;0.93;;;4.20;99.90;;;;;;4996455;28;20038;-78
2024/01/25 07:39:00;;;;;;;0.70;0.70;;;4.60;99.90;;;;;;4979341;28;20103;-77
2024/01/25 07:41:27;;;;;;;0.70;0.70;;;4.20;99.90;;;;;;4983066;28;20167;-77
2024/01/25 07:43:55;;;;;;;0.60;0.60;;;4.50;99.90;;;;;;5012160;28;20045;-77
2024/01/25 07:46:21;;;;;;;0.50;0.50;;;4.30;99.90;;;;;;5010963;28;20037;-79
2024/01/25 07:48:47;;;;;;;0.60;0.60;;;4.30;99.90;;;;;;4997347;28;20037;-78
2024/01/25 07:51:13;;;;;;;0.52;0.52;;;4.20;99.90;;;;;;4995404;28;20037;-78
2024/01/25 07:53:40;;;;;;;0.98;0.98;;;5.10;99.90;;;;;;5014064;28;20056;-80
2024/01/25 07:56:09;;;;;;;;;;;4.20;99.90;;;;;;4978789;28;20052;-80
2024/01/25 07:58:36;;;;;;;1.77;1.27;;;4.30;99.90;;;;;;5008043;28;20401;-79
2024/01/25 08:01:06;;;;;;;1.52;1.42;;;5.50;99.90;;;;;;4993974;28;20469;-79
2024/01/25 08:03:32;;;;;;;8.18;1.88;;;4.20;99.90;;;;;;4989360;28;20050;-79
2024/01/25 08:06:02;;;;;;;0.57;0.57;;;4.30;99.90;;;;;;4994032;28;20516;-79
2024/01/25 08:08:29;;;;;;;0.60;0.60;;;4.40;99.90;;;;;;4996844;28;20067;-80
2024/01/25 08:10:54;;;;;;;0.50;0.50;;;4.40;99.90;;;;;;5009275;28;20041;-80
2024/01/25 08:13:21;;;;;;;;;;;4.40;99.90;;;;;;4995259;28;20034;-80
2024/01/25 08:15:46;;;;;;;0.60;0.60;;;4.40;99.90;;;;;;5010439;28;19925;-80
2024/01/25 08:18:12;;;;;;;0.68;0.68;;;5.40;99.90;;;;;;4993069;28;20041;-80
2024/01/25 08:20:38;;;;;;;0.70;0.70;;;4.40;99.90;;;;;;5026755;28;20091;-81
2024/01/25 08:23:04;;;;;;;3.22;3.03;;;4.40;99.90;;;;;;4996778;28;20049;-80
2024/01/25 08:25:31;;;;;;;0.50;0.50;;;4.50;99.90;;;;;;5012894;28;20045;-80
2024/01/25 08:27:56;;;;;;;3.88;3.55;;;4.50;99.90;;;;;;4973385;28;20061;-80
2024/01/25 08:30:22;;;;;;;0.70;0.70;;;4.60;99.90;;;;;;4986743;28;20597;-80
2024/01/25 08:32:51;;;;;;;1.95;1.85;;;5.50;99.90;;;;;;5009387;28;20614;-80
2024/01/25 08:35:17;;;;;;;0.60;0.60;;;4.60;99.90;;;;;;4989325;28;21298;-80
2024/01/25 08:37:43;;;;;;;0.57;0.57;;;4.60;99.90;;;;;;5005854;28;20511;-79
2024/01/25 08:40:09;;;;;;;0.60;0.60;;;4.60;99.90;;;;;;4990323;28;20174;-80
2024/01/25 08:42:41;;;;;;;0.50;0.50;;;4.60;99.90;;;;;;5008968;28;20096;-79
2024/01/25 08:45:08;;;;;;;1.77;1.63;;;4.70;99.90;;;;;;5008584;28;20052;-80
2024/01/25 08:47:38;;;;;;;1.45;1.02;;;4.70;99.90;;;;;;5008583;28;20057;-80
2024/01/25 08:50:10;;;;;;;1.35;1.30;;;4.40;99.90;;;;;;5007409;28;20488;-79
2024/01/25 08:52:37;;;;;;;0.50;0.50;;;4.80;99.90;;;;;;4996770;28;20586;-78
2024/01/25 08:55:05;;;;;;;0.50;0.50;;;4.40;99.90;;;;;;5010509;28;20038;-79
2024/01/25 08:57:31;;;;;;;1.05;1.05;;;4.80;99.90;;;;;;5008467;28;20072;-79
2024/01/25 08:59:58;;;;;;;0.75;0.75;;;4.80;99.90;;;;;;5009097;28;20038;-80
2024/01/25 09:02:27;;;;;;;0.60;0.60;;;4.70;99.90;;;;;;4975358;28;20042;-80
2024/01/25 09:04:53;;;;;;;0.52;0.52;;;4.80;99.90;;;;;;5005793;28;20082;-80
2024/01/25 09:07:20;;;;;;;1.17;1.17;;;4.90;99.90;;;;;;5006170;28;20486;-80
2024/01/25 09:09:45;;;;;;;1.27;1.17;;;4.90;99.90;;;;;;5007708;28;20042;-80
2024/01/25 09:12:12;;;;;;;30.02;2.45;;;4.50;99.90;;;;;;4993858;28;20025;-80
2024/01/25 09:14:38;;;;;;;0.52;0.52;;;4.90;99.90;;;;;;4972797;28;20045;-80
2024/01/25 09:17:04;;;;;;;4.45;4.22;;;4.90;99.90;;;;;;5011613;28;20046;-79
2024/01/25 09:19:32;;;;;;;1.02;1.02;;;5.70;99.90;;;;;;4990032;28;20375;-80
2024/01/25 09:22:03;;;;;;;0.60;0.60;;;5.70;99.90;;;;;;5006666;28;20462;-81
2024/01/25 09:24:30;;;;;;;0.50;0.50;;;5.00;99.90;;;;;;5003938;28;20132;-80
2024/01/25 09:27:00;;;;;;;0.50;0.50;;;5.10;99.90;;;;;;4999571;28;20234;-79
2024/01/25 09:29:26;;;;;;;2.83;0.65;;;5.10;99.90;;;;;;4983210;28;20356;-79
2024/01/25 09:31:52;;;;;;;0.50;0.50;;;5.10;99.90;;;;;;5000645;28;20491;-79
2024/01/25 09:34:24;;;;;;;0.50;0.50;;;5.20;99.90;;;;;;4997752;28;20696;-79
2024/01/25 09:36:49;;;;;;;1.35;1.35;;;5.50;99.90;;;;;;4999993;28;20145;-80
2024/01/25 09:39:15;;;;;;;0.60;0.60;;;5.60;99.90;;;;;;4984538;28;20503;-79
2024/01/25 09:41:42;;;;;;;0.60;0.60;;;;;;;;;;4975498;28;20048;-79
2024/01/25 09:44:09;;;;;;;0.50;0.50;;;5.50;99.90;;;;;;4999823;28;20080;-80
2024/01/25 09:46:35;;;;;;;0.55;0.55;;;5.50;99.90;;;;;;4966164;28;20044;-78
2024/01/25 09:49:04;;;;;;;0.52;0.52;;;5.60;99.90;;;;;;4982792;28;20068;-79
2024/01/25 09:51:37;;;;;;;0.60;0.60;;;5.60;99.90;;;;;;4982248;28;20046;-79
2024/01/25 09:54:05;;;;;;;18.15;2.05;;;5.70;99.90;;;;;;4999319;28;20148;-79
2024/01/25 09:56:32;;;;;;;0.68;0.68;;;5.80;99.90;;;;;;4998493;28;20046;-79
2024/01/25 09:58:58;;;;;;;0.90;0.90;;;5.80;99.90;;;;;;4998784;28;20112;-79
2024/01/25 10:01:24;;;;;;;;;;;5.80;99.90;;;;;;4999584;28;20045;-79
2024/01/25 10:03:50;;;;;;;1.30;1.30;;;5.90;99.90;;;;;;5000708;28;19925;-79
2024/01/25 10:06:17;;;;;;;11.77;1.15;;;5.90;99.90;;;;;;4982442;28;20041;-79
2024/01/25 10:08:49;;;;;;;0.63;0.63;;;5.90;99.90;;;;;;4999210;28;20067;-79
2024/01/25 10:11:15;;;;;;;;;;;5.90;99.90;;;;;;5000440;28;20176;-78
2024/01/25 10:13:44;;;;;;;0.68;0.68;;;6.00;99.90;;;;;;4983222;28;20029;-78
2024/01/25 10:16:14;;;;;;;0.85;0.85;;;6.00;99.90;;;;;;5001851;28;20499;-79
2024/01/25 10:18:44;;;;;;;0.50;0.50;;;6.10;99.90;;;;;;4998880;28;20470;-78
2024/01/25 10:21:11;;;;;;;0.50;0.50;;;6.20;99.90;;;;;;4980521;28;20596;-78
2024/01/25 10:23:38;;;;;;;0.60;0.60;;;6.20;99.90;;;;;;4997528;28;20034;-80
2024/01/25 10:26:03;;;;;;;0.73;0.73;;;6.30;99.90;;;;;;4952239;28;20042;-79
2024/01/25 10:28:31;;;;;;;1.02;1.02;;;6.40;99.90;;;;;;4999615;28;20030;-79
2024/01/25 10:31:00;;;;;;;0.60;0.60;;;6.50;99.90;;;;;;5021880;28;20099;-79
2024/01/25 10:33:27;;;;;;;0.50;0.50;;;6.40;99.90;;;;;;4985743;28;20065;-80
2024/01/25 10:36:01;;;;;;;0.82;0.82;;;6.50;99.90;;;;;;5022632;28;20124;-79
2024/01/25 10:38:35;;;;;;;0.73;0.73;;;6.40;99.90;;;;;;5008379;28;20510;-78
2024/01/25 10:41:03;;;;;;;0.50;0.50;;;6.40;99.90;;;;;;5006650;28;20517;-78
2024/01/25 10:43:31;;;;;;;0.40;0.40;;;6.30;99.90;;;;;;5004726;28;20060;-79
2024/01/25 10:46:08;;;;;;;1.00;1.00;;;6.30;99.90;;;;;;5026727;28;20033;-78
2024/01/25 10:48:34;;;;;;;0.50;0.50;;;6.10;99.90;;;;;;5029161;28;20036;-77
2024/01/25 10:51:04;;;;;;;0.43;0.43;;;6.40;99.90;;;;;;5013279;28;20351;-78
2024/01/25 10:53:32;;;;;;;3.70;2.53;;;6.40;99.90;;;;;;4996630;28;20582;-79
2024/01/25 10:55:59;;;;;;;5.13;4.78;;;6.40;99.90;;;;;;5024512;28;20041;-79
2024/01/25 10:58:30;;;;;;;0.50;0.50;;;6.50;99.90;;;;;;4996485;28;20041;-79
2024/01/25 11:00:58;;;;;;;2.05;1.10;;;6.50;99.90;;;;;;4995715;28;20499;-80
2024/01/25 11:03:28;;;;;;;0.60;0.60;;;6.70;99.90;;;;;;5012830;28;20099;-80
2024/01/25 11:06:10;;;;;;;1.02;1.02;;;6.80;99.90;;;;;;5012899;28;20131;-79
2024/01/25 11:08:39;;;;;;;0.80;0.80;;;7.00;99.90;;;;;;5030930;28;20391;-78
2024/01/25 11:11:08;;;;;;;2.10;2.00;;;7.10;99.90;;;;;;4979266;28;20546;-79
2024/01/25 11:13:35;;;;;;;1.85;1.75;;;7.10;99.90;;;;;;4998239;28;20060;-79
2024/01/25 11:16:28;;;;;;;0.50;0.50;;;7.10;99.90;;;;;;4997404;28;20099;-84
2024/01/25 11:19:04;;;;;;;0.77;0.77;;;7.10;99.90;;;;;;4995958;28;20092;-84
2024/01/25 11:21:47;;;;;;;0.50;0.50;;;7.20;99.90;;;;;;5027994;28;20034;-84
2024/01/25 11:24:13;;;;;;;0.60;0.60;;;7.20;99.90;;;;;;5012834;28;20098;-86
2024/01/25 11:26:44;;;;;;;0.65;0.65;;;7.30;99.90;;;;;;5014679;28;20057;-85
2024/01/25 11:29:23;;;;;;;4.40;2.20;;;7.20;99.90;;;;;;5002452;28;20104;-85
2024/01/25 11:31:52;;;;;;;1.50;0.75;;;7.20;99.90;;;;;;4974461;28;20038;-85
2024/01/25 11:34:20;;;;;;;0.60;0.60;;;7.20;99.90;;;;;;4989072;28;20467;-84
2024/01/25 11:36:46;;;;;;;1.20;1.10;;;7.20;99.90;;;;;;4989575;28;20077;-81
2024/01/25 11:39:13;;;;;;;1.02;1.02;;;7.30;99.90;;;;;;4990865;28;20089;-84
2024/01/25 11:41:39;;;;;;;0.40;0.40;;;7.30;99.90;;;;;;4990173;28;20050;-82
2024/01/25 11:44:12;;;;;;;0.30;0.30;;;7.40;99.90;;;;;;4992031;28;20165;-81
2024/01/25 11:46:39;;;;;;;1.65;1.55;;;7.40;99.90;;;;;;4990039;28;20060;-81
2024/01/25 11:49:07;;;;;;;0.55;0.55;;;7.40;99.90;;;;;;4986523;28;20046;-82
2024/01/25 11:51:34;;;;;;;0.80;0.80;;;7.30;99.90;;;;;;4989065;28;20046;-82
2024/01/25 11:54:00;;;;;;;0.65;0.65;;;7.30;99.90;;;;;;4975905;28;20113;-82
2024/01/25 11:56:36;;;;;;;4.30;1.98;;;7.30;99.90;;;;;;4974738;28;20600;-81
2024/01/25 11:59:02;;;;;;;0.50;0.50;;;7.30;99.90;;;;;;4989098;28;20492;-82
2024/01/25 12:01:30;;;;;;;5.88;2.15;;;7.40;99.90;;;;;;4989635;28;20053;-81
2024/01/25 12:03:56;;;;;;;1.17;1.13;;;7.40;99.90;;;;;;4988323;28;20042;-83
2024/01/25 12:06:22;;;;;;;;;;;7.50;99.90;;;;;;5006143;28;20369;-82
2024/01/25 12:08:51;;;;;;;0.60;0.60;;;7.40;99.90;;;;;;4970965;28;19966;-82
2024/01/25 12:11:24;;;;;;;0.57;0.57;;;7.50;99.90;;;;;;4960622;28;20101;-80
2024/01/25 12:13:52;;;;;;;1.38;1.33;;;7.50;99.90;;;;;;4989761;28;20463;-83
2024/01/25 12:16:18;;;;;;;0.60;0.60;;;7.50;99.90;;;;;;4972177;28;20035;-81
2024/01/25 12:18:44;;;;;;;;;;;7.90;99.90;;;;;;4973534;28;20046;-81
2024/01/25 12:21:10;;;;;;;0.50;0.50;;;7.60;99.90;;;;;;4977320;28;19918;-81
2024/01/25 12:23:38;;;;;;;0.60;0.60;;;7.60;99.90;;;;;;4991392;28;20054;-82
2024/01/25 12:26:06;;;;;;;0.43;0.43;;;7.70;99.90;;;;;;4989616;28;20492;-80
2024/01/25 12:28:33;;;;;;;0.70;0.70;;;7.70;99.90;;;;;;4990386;28;20050;-80
2024/01/25 12:31:07;;;;;;;1.65;1.58;;;7.70;99.90;;;;;;5034620;28;20048;-79
2024/01/25 12:33:34;;;;;;;0.60;0.60;;;7.70;99.90;;;;;;5031022;28;20163;-81
2024/01/25 12:35:59;;;;;;;0.40;0.40;;;7.80;99.90;;;;;;5009470;28;20166;-80
2024/01/25 12:38:26;;;;;;;7.88;0.85;;;7.90;99.90;;;;;;4996731;28;20076;-81
2024/01/25 12:40:52;;;;;;;;;;;8.00;99.90;;;;;;4994474;28;20044;-80
2024/01/25 12:43:22;;;;;;;0.40;0.40;;;8.10;99.90;;;;;;5032213;28;20293;-80
2024/01/25 12:45:52;;;;;;;0.50;0.50;;;8.10;99.90;;;;;;4996038;28;20033;-80
2024/01/25 12:48:18;;;;;;;2.58;2.38;;;8.10;99.90;;;;;;5015034;28;20495;-80
2024/01/25 12:50:49;;;;;;;1.80;1.70;;;8.20;99.90;;;;;;4991896;28;20037;-80
2024/01/25 12:53:15;;;;;;;0.40;0.40;;;8.30;99.90;;;;;;5029160;28;20094;-81
2024/01/25 12:55:42;;;;;;;0.60;0.60;;;8.20;99.90;;;;;;4994104;28;20418;-80
2024/01/25 12:58:08;;;;;;;0.45;0.45;;;8.20;99.90;;;;;;5011575;28;20048;-81
2024/01/25 13:00:33;;;;;;;0.80;0.80;;;8.10;99.90;;;;;;4992753;28;20434;-80